sensor_id;sensor_type;location;lat;lon;timestamp;P1;P2;P0
69349;PMS5003;64554;43.452;4.934;2023-07-02T00:01:44;5.00;5.00;3.00
69349;PMS5003;64554;43.452;4.934;2023-07-02T00:04:12;6.00;6.00;4.75
69349;PMS5003;64554;43.452;4.934;2023-07-02T00:06:43;4.80;4.80;3.00
69349;PMS5003;64554;43.452;4.934;2023-07-02T00:09:12;6.00;6.00;3.60
69349;PMS5003;64554;43.452;4.934;2023-07-02T00:11:40;7.00;6.80;4.80
69349;PMS5003;64554;43.452;4.934;2023-07-02T00:14:07;7.00;6.00;4.00
69349;PMS5003;64554;43.452;4.934;2023-07-02T00:16:44;8.20;8.20;3.80
69349;PMS5003;64554;43.452;4.934;2023-07-02T00:19:13;6.25;6.25;4.00
69349;PMS5003;64554;43.452;4.934;2023-07-02T00:21:41;4.60;4.60;3.00
69349;PMS5003;64554;43.452;4.934;2023-07-02T00:24:08;7.00;7.00;4.67
69349;PMS5003;64554;43.452;4.934;2023-07-02T00:26:37;7.00;6.00;3.00
69349;PMS5003;64554;43.452;4.934;2023-07-02T00:29:04;8.00;7.40;3.40
69349;PMS5003;64554;43.452;4.934;2023-07-02T00:31:32;9.40;8.00;5.00
69349;PMS5003;64554;43.452;4.934;2023-07-02T00:34:02;9.00;7.80;5.80
69349;PMS5003;64554;43.452;4.934;2023-07-02T00:36:30;9.00;5.60;3.60
69349;PMS5003;64554;43.452;4.934;2023-07-02T00:38:57;9.00;9.00;5.25
69349;PMS5003;64554;43.452;4.934;2023-07-02T00:41:23;11.60;9.60;5.60
69349;PMS5003;64554;43.452;4.934;2023-07-02T00:43:50;11.60;10.60;4.60
69349;PMS5003;64554;43.452;4.934;2023-07-02T00:46:22;8.00;8.00;4.50
69349;PMS5003;64554;43.452;4.934;2023-07-02T00:48:52;8.00;8.00;5.00
69349;PMS5003;64554;43.452;4.934;2023-07-02T00:51:21;11.00;9.25;6.00
69349;PMS5003;64554;43.452;4.934;2023-07-02T00:53:48;9.20;9.20;5.00
69349;PMS5003;64554;43.452;4.934;2023-07-02T00:56:15;15.25;15.00;7.00
69349;PMS5003;64554;43.452;4.934;2023-07-02T00:58:43;14.00;14.00;5.80
69349;PMS5003;64554;43.452;4.934;2023-07-02T01:01:16;9.00;9.00;5.40
69349;PMS5003;64554;43.452;4.934;2023-07-02T01:04:01;9.60;9.60;5.60
69349;PMS5003;64554;43.452;4.934;2023-07-02T01:06:31;12.25;10.75;6.75
69349;PMS5003;64554;43.452;4.934;2023-07-02T01:09:05;11.00;11.00;6.75
69349;PMS5003;64554;43.452;4.934;2023-07-02T01:11:38;9.75;8.00;4.00
69349;PMS5003;64554;43.452;4.934;2023-07-02T01:14:11;10.80;10.80;6.80
69349;PMS5003;64554;43.452;4.934;2023-07-02T01:16:39;10.60;10.60;6.80
69349;PMS5003;64554;43.452;4.934;2023-07-02T01:19:17;9.60;9.60;6.20
69349;PMS5003;64554;43.452;4.934;2023-07-02T01:21:48;10.40;10.40;6.40
69349;PMS5003;64554;43.452;4.934;2023-07-02T01:24:18;9.20;9.20;5.40
69349;PMS5003;64554;43.452;4.934;2023-07-02T01:26:47;11.40;9.40;6.40
69349;PMS5003;64554;43.452;4.934;2023-07-02T01:31:41;8.50;8.50;5.50
69349;PMS5003;64554;43.452;4.934;2023-07-02T01:34:07;12.00;12.00;6.00
69349;PMS5003;64554;43.452;4.934;2023-07-02T01:36:35;13.00;12.00;7.00
69349;PMS5003;64554;43.452;4.934;2023-07-02T01:39:02;11.50;11.50;7.00
69349;PMS5003;64554;43.452;4.934;2023-07-02T01:41:28;14.00;12.00;7.00
69349;PMS5003;64554;43.452;4.934;2023-07-02T01:43:55;11.00;10.00;7.00
69349;PMS5003;64554;43.452;4.934;2023-07-02T01:46:22;12.00;10.00;6.00
69349;PMS5003;64554;43.452;4.934;2023-07-02T01:48:48;15.00;14.00;8.00
69349;PMS5003;64554;43.452;4.934;2023-07-02T01:51:15;14.60;14.20;6.00
69349;PMS5003;64554;43.452;4.934;2023-07-02T01:53:42;12.00;11.00;6.50
69349;PMS5003;64554;43.452;4.934;2023-07-02T01:56:08;13.00;12.00;6.00
69349;PMS5003;64554;43.452;4.934;2023-07-02T01:58:35;13.00;12.00;7.75
69349;PMS5003;64554;43.452;4.934;2023-07-02T02:01:01;12.00;12.00;7.00
69349;PMS5003;64554;43.452;4.934;2023-07-02T02:03:28;13.40;12.00;8.00
69349;PMS5003;64554;43.452;4.934;2023-07-02T02:05:54;15.00;15.00;9.00
69349;PMS5003;64554;43.452;4.934;2023-07-02T02:08:21;12.60;12.60;6.60
69349;PMS5003;64554;43.452;4.934;2023-07-02T02:10:48;17.25;17.25;10.25
69349;PMS5003;64554;43.452;4.934;2023-07-02T02:13:14;16.25;16.25;9.00
69349;PMS5003;64554;43.452;4.934;2023-07-02T02:15:41;16.80;15.80;8.80
69349;PMS5003;64554;43.452;4.934;2023-07-02T02:18:07;17.00;17.00;10.60
69349;PMS5003;64554;43.452;4.934;2023-07-02T02:20:34;13.50;12.75;8.00
69349;PMS5003;64554;43.452;4.934;2023-07-02T02:23:01;16.00;14.80;10.00
69349;PMS5003;64554;43.452;4.934;2023-07-02T02:25:27;13.00;13.00;9.50
69349;PMS5003;64554;43.452;4.934;2023-07-02T02:27:54;14.80;14.80;9.00
69349;PMS5003;64554;43.452;4.934;2023-07-02T02:30:21;17.00;16.60;9.60
69349;PMS5003;64554;43.452;4.934;2023-07-02T02:32:48;20.00;17.75;8.50
69349;PMS5003;64554;43.452;4.934;2023-07-02T02:35:15;18.00;18.00;8.25
69349;PMS5003;64554;43.452;4.934;2023-07-02T02:37:42;17.80;16.00;9.80
69349;PMS5003;64554;43.452;4.934;2023-07-02T02:40:08;17.80;15.20;9.20
69349;PMS5003;64554;43.452;4.934;2023-07-02T02:42:35;18.20;18.20;10.80
69349;PMS5003;64554;43.452;4.934;2023-07-02T02:45:03;19.80;18.40;12.00
69349;PMS5003;64554;43.452;4.934;2023-07-02T02:47:29;21.00;16.25;10.50
69349;PMS5003;64554;43.452;4.934;2023-07-02T02:49:56;18.00;16.00;9.40
69349;PMS5003;64554;43.452;4.934;2023-07-02T02:52:22;16.00;16.00;9.60
69349;PMS5003;64554;43.452;4.934;2023-07-02T02:54:50;22.20;19.20;10.80
69349;PMS5003;64554;43.452;4.934;2023-07-02T02:57:16;20.75;20.75;10.00
69349;PMS5003;64554;43.452;4.934;2023-07-02T02:59:43;20.00;20.00;12.60
69349;PMS5003;64554;43.452;4.934;2023-07-02T03:02:09;18.20;16.60;9.00
69349;PMS5003;64554;43.452;4.934;2023-07-02T03:04:36;18.50;17.50;9.50
69349;PMS5003;64554;43.452;4.934;2023-07-02T03:07:07;25.60;25.40;12.00
69349;PMS5003;64554;43.452;4.934;2023-07-02T03:09:34;22.00;20.75;12.25
69349;PMS5003;64554;43.452;4.934;2023-07-02T03:12:00;19.75;19.75;10.75
69349;PMS5003;64554;43.452;4.934;2023-07-02T03:14:27;19.75;18.25;12.00
69349;PMS5003;64554;43.452;4.934;2023-07-02T03:16:53;20.60;19.60;12.00
69349;PMS5003;64554;43.452;4.934;2023-07-02T03:19:21;15.60;15.60;10.20
69349;PMS5003;64554;43.452;4.934;2023-07-02T03:21:47;24.00;24.00;10.60
69349;PMS5003;64554;43.452;4.934;2023-07-02T03:24:14;20.25;18.25;13.25
69349;PMS5003;64554;43.452;4.934;2023-07-02T03:26:42;20.00;19.00;10.50
69349;PMS5003;64554;43.452;4.934;2023-07-02T03:29:09;17.60;17.60;10.40
69349;PMS5003;64554;43.452;4.934;2023-07-02T03:31:36;18.40;18.40;10.00
69349;PMS5003;64554;43.452;4.934;2023-07-02T03:34:08;16.75;16.75;9.00
69349;PMS5003;64554;43.452;4.934;2023-07-02T03:36:36;18.00;18.00;13.00
69349;PMS5003;64554;43.452;4.934;2023-07-02T03:39:03;23.67;23.67;13.00
69349;PMS5003;64554;43.452;4.934;2023-07-02T03:41:32;18.00;18.00;11.75
69349;PMS5003;64554;43.452;4.934;2023-07-02T03:43:59;16.60;16.60;10.60
69349;PMS5003;64554;43.452;4.934;2023-07-02T03:46:26;17.00;17.00;11.60
69349;PMS5003;64554;43.452;4.934;2023-07-02T03:48:53;15.80;15.40;10.40
69349;PMS5003;64554;43.452;4.934;2023-07-02T03:51:20;20.00;20.00;10.60
69349;PMS5003;64554;43.452;4.934;2023-07-02T03:53:46;19.00;17.00;9.60
69349;PMS5003;64554;43.452;4.934;2023-07-02T03:56:13;18.75;16.75;11.00
69349;PMS5003;64554;43.452;4.934;2023-07-02T03:58:40;18.00;16.25;10.00
69349;PMS5003;64554;43.452;4.934;2023-07-02T04:01:07;17.20;17.00;9.40
69349;PMS5003;64554;43.452;4.934;2023-07-02T04:03:33;19.00;19.00;10.80
69349;PMS5003;64554;43.452;4.934;2023-07-02T04:06:00;15.75;15.75;11.00
69349;PMS5003;64554;43.452;4.934;2023-07-02T04:08:26;20.50;19.50;9.75
69349;PMS5003;64554;43.452;4.934;2023-07-02T04:10:54;17.00;16.00;10.00
69349;PMS5003;64554;43.452;4.934;2023-07-02T04:13:21;19.00;15.50;9.00
69349;PMS5003;64554;43.452;4.934;2023-07-02T04:15:47;19.60;19.60;12.00
69349;PMS5003;64554;43.452;4.934;2023-07-02T04:18:14;19.75;18.75;11.50
69349;PMS5003;64554;43.452;4.934;2023-07-02T04:20:40;20.40;19.40;10.40
69349;PMS5003;64554;43.452;4.934;2023-07-02T04:23:07;17.00;17.00;11.00
69349;PMS5003;64554;43.452;4.934;2023-07-02T04:25:33;17.00;17.00;10.00
69349;PMS5003;64554;43.452;4.934;2023-07-02T04:28:20;23.50;23.50;12.25
69349;PMS5003;64554;43.452;4.934;2023-07-02T04:30:47;17.67;17.67;10.67
69349;PMS5003;64554;43.452;4.934;2023-07-02T04:33:16;20.40;16.40;10.80
69349;PMS5003;64554;43.452;4.934;2023-07-02T04:35:43;22.25;21.25;12.00
69349;PMS5003;64554;43.452;4.934;2023-07-02T04:38:10;18.00;18.00;10.00
69349;PMS5003;64554;43.452;4.934;2023-07-02T04:40:37;18.00;18.00;11.00
69349;PMS5003;64554;43.452;4.934;2023-07-02T04:43:03;21.25;21.25;11.75
69349;PMS5003;64554;43.452;4.934;2023-07-02T04:45:32;23.50;21.75;10.50
69349;PMS5003;64554;43.452;4.934;2023-07-02T04:48:03;19.60;18.60;12.80
69349;PMS5003;64554;43.452;4.934;2023-07-02T04:50:30;14.60;14.60;9.00
69349;PMS5003;64554;43.452;4.934;2023-07-02T04:52:56;18.60;17.00;11.00
69349;PMS5003;64554;43.452;4.934;2023-07-02T04:55:23;25.25;23.50;10.25
69349;PMS5003;64554;43.452;4.934;2023-07-02T04:57:50;18.60;18.60;11.60
69349;PMS5003;64554;43.452;4.934;2023-07-02T05:00:16;18.80;18.80;10.60
69349;PMS5003;64554;43.452;4.934;2023-07-02T05:02:43;24.00;23.40;12.00
69349;PMS5003;64554;43.452;4.934;2023-07-02T05:05:10;20.00;15.75;9.00
69349;PMS5003;64554;43.452;4.934;2023-07-02T05:07:36;21.50;20.00;10.50
69349;PMS5003;64554;43.452;4.934;2023-07-02T05:10:03;18.00;18.00;10.60
69349;PMS5003;64554;43.452;4.934;2023-07-02T05:12:30;20.40;20.40;11.00
69349;PMS5003;64554;43.452;4.934;2023-07-02T05:14:56;17.40;16.00;10.40
69349;PMS5003;64554;43.452;4.934;2023-07-02T05:17:23;20.00;20.00;12.00
69349;PMS5003;64554;43.452;4.934;2023-07-02T05:19:49;21.20;21.20;11.80
69349;PMS5003;64554;43.452;4.934;2023-07-02T05:22:16;19.40;19.40;10.80
69349;PMS5003;64554;43.452;4.934;2023-07-02T05:24:45;21.40;19.60;12.40
69349;PMS5003;64554;43.452;4.934;2023-07-02T05:27:12;22.00;22.00;11.00
69349;PMS5003;64554;43.452;4.934;2023-07-02T05:29:39;21.00;18.20;10.60
69349;PMS5003;64554;43.452;4.934;2023-07-02T05:32:05;23.50;22.00;11.50
69349;PMS5003;64554;43.452;4.934;2023-07-02T05:34:33;22.80;22.80;10.60
69349;PMS5003;64554;43.452;4.934;2023-07-02T05:37:00;21.60;20.60;10.60
69349;PMS5003;64554;43.452;4.934;2023-07-02T05:39:26;22.75;22.50;11.25
69349;PMS5003;64554;43.452;4.934;2023-07-02T05:41:53;19.60;19.00;11.40
69349;PMS5003;64554;43.452;4.934;2023-07-02T05:44:20;20.00;19.00;10.40
69349;PMS5003;64554;43.452;4.934;2023-07-02T05:46:46;21.60;21.60;12.20
69349;PMS5003;64554;43.452;4.934;2023-07-02T05:49:13;22.40;18.60;11.80
69349;PMS5003;64554;43.452;4.934;2023-07-02T05:51:39;22.00;19.00;10.80
69349;PMS5003;64554;43.452;4.934;2023-07-02T05:54:06;23.00;20.00;11.00
69349;PMS5003;64554;43.452;4.934;2023-07-02T05:56:32;19.60;19.00;14.00
69349;PMS5003;64554;43.452;4.934;2023-07-02T05:58:59;20.25;18.25;11.25
69349;PMS5003;64554;43.452;4.934;2023-07-02T06:01:25;22.60;21.00;11.00
69349;PMS5003;64554;43.452;4.934;2023-07-02T06:03:52;21.00;20.80;12.80
69349;PMS5003;64554;43.452;4.934;2023-07-02T06:06:20;20.50;17.50;11.50
69349;PMS5003;64554;43.452;4.934;2023-07-02T06:08:47;21.25;20.25;12.00
69349;PMS5003;64554;43.452;4.934;2023-07-02T06:11:14;19.00;19.00;11.00
69349;PMS5003;64554;43.452;4.934;2023-07-02T06:13:41;21.80;21.00;13.00
69349;PMS5003;64554;43.452;4.934;2023-07-02T06:16:07;17.00;17.00;12.00
69349;PMS5003;64554;43.452;4.934;2023-07-02T06:18:34;23.50;22.25;13.25
69349;PMS5003;64554;43.452;4.934;2023-07-02T06:21:00;23.25;23.25;12.50
69349;PMS5003;64554;43.452;4.934;2023-07-02T06:23:27;16.75;16.75;12.50
69349;PMS5003;64554;43.452;4.934;2023-07-02T06:25:54;18.60;17.20;13.20
69349;PMS5003;64554;43.452;4.934;2023-07-02T06:28:26;22.40;22.00;13.00
69349;PMS5003;64554;43.452;4.934;2023-07-02T06:30:52;22.00;20.00;13.50
69349;PMS5003;64554;43.452;4.934;2023-07-02T06:33:19;20.00;19.00;12.00
69349;PMS5003;64554;43.452;4.934;2023-07-02T06:35:45;19.00;16.00;10.40
69349;PMS5003;64554;43.452;4.934;2023-07-02T06:38:12;20.75;19.75;12.25
69349;PMS5003;64554;43.452;4.934;2023-07-02T06:40:38;27.25;25.00;12.00
69349;PMS5003;64554;43.452;4.934;2023-07-02T06:43:05;18.40;18.40;12.40
69349;PMS5003;64554;43.452;4.934;2023-07-02T06:45:31;21.80;20.80;12.00
69349;PMS5003;64554;43.452;4.934;2023-07-02T06:47:58;22.00;22.00;14.00
69349;PMS5003;64554;43.452;4.934;2023-07-02T06:50:24;25.80;25.80;13.00
69349;PMS5003;64554;43.452;4.934;2023-07-02T06:52:51;28.50;27.50;15.00
69349;PMS5003;64554;43.452;4.934;2023-07-02T06:55:18;23.00;23.00;12.60
69349;PMS5003;64554;43.452;4.934;2023-07-02T06:57:45;23.00;21.00;14.00
69349;PMS5003;64554;43.452;4.934;2023-07-02T07:00:12;20.60;20.60;13.00
69349;PMS5003;64554;43.452;4.934;2023-07-02T07:02:39;27.67;26.00;15.00
69349;PMS5003;64554;43.452;4.934;2023-07-02T07:05:06;28.20;24.00;14.40
69349;PMS5003;64554;43.452;4.934;2023-07-02T07:07:32;23.00;21.00;12.50
69349;PMS5003;64554;43.452;4.934;2023-07-02T07:09:59;22.75;22.00;10.50
69349;PMS5003;64554;43.452;4.934;2023-07-02T07:12:26;22.00;19.00;12.75
69349;PMS5003;64554;43.452;4.934;2023-07-02T07:14:52;25.00;25.00;11.80
69349;PMS5003;64554;43.452;4.934;2023-07-02T07:17:19;22.25;20.25;12.25
69349;PMS5003;64554;43.452;4.934;2023-07-02T07:19:45;24.20;23.80;13.20
69349;PMS5003;64554;43.452;4.934;2023-07-02T07:22:12;18.00;17.00;11.00
69349;PMS5003;64554;43.452;4.934;2023-07-02T07:24:39;25.25;24.00;12.50
69349;PMS5003;64554;43.452;4.934;2023-07-02T07:27:06;22.20;20.40;11.80
69349;PMS5003;64554;43.452;4.934;2023-07-02T07:29:33;18.00;18.00;12.00
69349;PMS5003;64554;43.452;4.934;2023-07-02T07:31:59;18.75;18.75;9.25
69349;PMS5003;64554;43.452;4.934;2023-07-02T07:34:26;22.00;19.00;10.00
69349;PMS5003;64554;43.452;4.934;2023-07-02T07:36:54;17.40;17.40;9.00
69349;PMS5003;64554;43.452;4.934;2023-07-02T07:39:20;20.00;19.00;12.20
69349;PMS5003;64554;43.452;4.934;2023-07-02T07:41:47;21.40;21.40;12.00
69349;PMS5003;64554;43.452;4.934;2023-07-02T07:44:14;22.00;22.00;12.00
69349;PMS5003;64554;43.452;4.934;2023-07-02T07:46:41;20.50;19.50;10.75
69349;PMS5003;64554;43.452;4.934;2023-07-02T07:49:08;18.00;18.00;11.25
69349;PMS5003;64554;43.452;4.934;2023-07-02T07:51:34;19.60;19.60;13.60
69349;PMS5003;64554;43.452;4.934;2023-07-02T07:54:02;22.20;21.40;11.00
69349;PMS5003;64554;43.452;4.934;2023-07-02T07:56:29;17.40;16.60;10.60
69349;PMS5003;64554;43.452;4.934;2023-07-02T07:58:56;14.33;14.33;9.00
69349;PMS5003;64554;43.452;4.934;2023-07-02T08:01:22;13.25;13.25;9.25
69349;PMS5003;64554;43.452;4.934;2023-07-02T08:03:49;15.80;14.40;10.00
69349;PMS5003;64554;43.452;4.934;2023-07-02T08:06:15;12.60;12.60;8.80
69349;PMS5003;64554;43.452;4.934;2023-07-02T08:08:42;22.40;21.40;10.20
69349;PMS5003;64554;43.452;4.934;2023-07-02T08:11:09;17.80;17.60;12.00
69349;PMS5003;64554;43.452;4.934;2023-07-02T08:13:35;22.20;18.40;11.60
69349;PMS5003;64554;43.452;4.934;2023-07-02T08:16:02;18.60;17.60;9.20
69349;PMS5003;64554;43.452;4.934;2023-07-02T08:18:28;18.40;18.40;9.20
69349;PMS5003;64554;43.452;4.934;2023-07-02T08:20:55;13.00;13.00;8.75
69349;PMS5003;64554;43.452;4.934;2023-07-02T08:23:21;17.50;13.50;8.50
69349;PMS5003;64554;43.452;4.934;2023-07-02T08:25:48;15.00;13.60;9.00
69349;PMS5003;64554;43.452;4.934;2023-07-02T08:28:14;15.80;14.80;9.40
69349;PMS5003;64554;43.452;4.934;2023-07-02T08:30:41;15.25;15.25;10.00
69349;PMS5003;64554;43.452;4.934;2023-07-02T08:33:07;21.80;18.80;10.80
69349;PMS5003;64554;43.452;4.934;2023-07-02T08:35:34;11.00;11.00;6.20
69349;PMS5003;64554;43.452;4.934;2023-07-02T08:38:00;12.80;12.80;9.00
69349;PMS5003;64554;43.452;4.934;2023-07-02T08:40:27;10.60;10.60;7.00
69349;PMS5003;64554;43.452;4.934;2023-07-02T08:42:55;16.00;15.80;11.80
69349;PMS5003;64554;43.452;4.934;2023-07-02T08:45:23;16.80;14.80;9.20
69349;PMS5003;64554;43.452;4.934;2023-07-02T08:47:51;16.25;15.00;9.75
69349;PMS5003;64554;43.452;4.934;2023-07-02T08:50:20;13.25;12.25;7.25
69349;PMS5003;64554;43.452;4.934;2023-07-02T08:52:46;12.40;12.40;6.00
69349;PMS5003;64554;43.452;4.934;2023-07-02T08:55:13;16.40;15.20;8.00
69349;PMS5003;64554;43.452;4.934;2023-07-02T08:57:40;11.40;11.40;8.20
69349;PMS5003;64554;43.452;4.934;2023-07-02T09:00:09;16.00;13.00;8.00
69349;PMS5003;64554;43.452;4.934;2023-07-02T09:02:36;17.25;16.25;10.25
69349;PMS5003;64554;43.452;4.934;2023-07-02T09:05:03;15.00;14.00;9.00
69349;PMS5003;64554;43.452;4.934;2023-07-02T09:07:30;12.25;11.75;7.00
69349;PMS5003;64554;43.452;4.934;2023-07-02T09:09:57;12.00;10.40;6.00
69349;PMS5003;64554;43.452;4.934;2023-07-02T09:12:24;11.60;11.60;6.60
69349;PMS5003;64554;43.452;4.934;2023-07-02T09:14:58;14.60;14.20;6.00
69349;PMS5003;64554;43.452;4.934;2023-07-02T09:17:29;12.20;9.40;6.40
69349;PMS5003;64554;43.452;4.934;2023-07-02T09:19:56;10.40;9.00;5.80
69349;PMS5003;64554;43.452;4.934;2023-07-02T09:22:23;11.00;11.00;7.00
69349;PMS5003;64554;43.452;4.934;2023-07-02T09:24:50;10.40;10.40;5.60
69349;PMS5003;64554;43.452;4.934;2023-07-02T09:27:18;11.00;11.00;5.00
69349;PMS5003;64554;43.452;4.934;2023-07-02T09:29:49;8.00;8.00;5.00
69349;PMS5003;64554;43.452;4.934;2023-07-02T09:32:23;11.67;11.67;7.67
69349;PMS5003;64554;43.452;4.934;2023-07-02T09:34:50;10.00;10.00;6.00
69349;PMS5003;64554;43.452;4.934;2023-07-02T09:37:16;9.75;9.75;3.25
69349;PMS5003;64554;43.452;4.934;2023-07-02T09:39:43;8.40;8.40;6.00
69349;PMS5003;64554;43.452;4.934;2023-07-02T09:42:10;11.50;11.50;4.50
69349;PMS5003;64554;43.452;4.934;2023-07-02T09:44:37;7.00;7.00;4.75
69349;PMS5003;64554;43.452;4.934;2023-07-02T09:47:05;11.60;11.60;5.00
69349;PMS5003;64554;43.452;4.934;2023-07-02T09:49:33;7.75;7.00;5.00
69349;PMS5003;64554;43.452;4.934;2023-07-02T09:52:09;7.00;7.00;4.00
69349;PMS5003;64554;43.452;4.934;2023-07-02T09:54:37;9.75;8.75;5.00
69349;PMS5003;64554;43.452;4.934;2023-07-02T09:57:04;9.00;8.00;4.00
69349;PMS5003;64554;43.452;4.934;2023-07-02T09:59:32;7.50;6.50;4.00
69349;PMS5003;64554;43.452;4.934;2023-07-02T10:01:59;7.00;7.00;5.50
69349;PMS5003;64554;43.452;4.934;2023-07-02T10:04:27;8.00;7.00;3.00
69349;PMS5003;64554;43.452;4.934;2023-07-02T10:06:54;7.00;7.00;4.40
69349;PMS5003;64554;43.452;4.934;2023-07-02T10:09:33;8.40;7.40;5.00
69349;PMS5003;64554;43.452;4.934;2023-07-02T10:12:00;9.40;9.40;5.40
69349;PMS5003;64554;43.452;4.934;2023-07-02T10:14:27;8.80;8.80;5.40
69349;PMS5003;64554;43.452;4.934;2023-07-02T10:16:54;7.75;6.75;3.75
69349;PMS5003;64554;43.452;4.934;2023-07-02T10:19:21;8.40;7.00;4.60
69349;PMS5003;64554;43.452;4.934;2023-07-02T10:22:01;7.75;7.75;4.75
69349;PMS5003;64554;43.452;4.934;2023-07-02T10:24:28;7.25;7.25;3.25
69349;PMS5003;64554;43.452;4.934;2023-07-02T10:26:56;8.00;8.00;5.00
69349;PMS5003;64554;43.452;4.934;2023-07-02T10:29:23;8.00;7.40;4.00
69349;PMS5003;64554;43.452;4.934;2023-07-02T10:31:54;11.80;11.80;4.60
69349;PMS5003;64554;43.452;4.934;2023-07-02T10:34:28;7.80;7.20;4.20
69349;PMS5003;64554;43.452;4.934;2023-07-02T10:36:54;6.40;6.40;3.60
69349;PMS5003;64554;43.452;4.934;2023-07-02T10:39:21;5.60;5.60;2.60
69349;PMS5003;64554;43.452;4.934;2023-07-02T10:41:47;5.40;5.40;2.60
69349;PMS5003;64554;43.452;4.934;2023-07-02T10:44:15;7.00;7.00;4.00
69349;PMS5003;64554;43.452;4.934;2023-07-02T10:46:46;5.50;5.50;3.00
69349;PMS5003;64554;43.452;4.934;2023-07-02T10:49:13;5.00;5.00;2.25
69349;PMS5003;64554;43.452;4.934;2023-07-02T10:51:40;4.80;4.80;2.00
69349;PMS5003;64554;43.452;4.934;2023-07-02T10:54:06;4.00;4.00;2.00
69349;PMS5003;64554;43.452;4.934;2023-07-02T10:56:34;5.00;5.00;2.50
69349;PMS5003;64554;43.452;4.934;2023-07-02T10:59:01;6.00;6.00;4.00
69349;PMS5003;64554;43.452;4.934;2023-07-02T11:01:28;5.80;5.80;3.40
69349;PMS5003;64554;43.452;4.934;2023-07-02T11:04:02;8.25;8.25;4.50
69349;PMS5003;64554;43.452;4.934;2023-07-02T11:06:31;7.20;6.20;3.20
69349;PMS5003;64554;43.452;4.934;2023-07-02T11:08:59;8.00;8.00;4.25
69349;PMS5003;64554;43.452;4.934;2023-07-02T11:11:26;6.50;6.50;4.50
69349;PMS5003;64554;43.452;4.934;2023-07-02T11:13:52;4.60;4.60;3.00
69349;PMS5003;64554;43.452;4.934;2023-07-02T11:16:23;6.20;5.40;3.40
69349;PMS5003;64554;43.452;4.934;2023-07-02T11:18:52;5.60;5.60;3.60
69349;PMS5003;64554;43.452;4.934;2023-07-02T11:21:20;6.50;6.50;2.50
69349;PMS5003;64554;43.452;4.934;2023-07-02T11:23:46;7.00;7.00;4.00
69349;PMS5003;64554;43.452;4.934;2023-07-02T11:26:13;10.50;10.50;3.25
69349;PMS5003;64554;43.452;4.934;2023-07-02T11:28:47;4.00;4.00;3.00
69349;PMS5003;64554;43.452;4.934;2023-07-02T11:31:14;2.60;2.60;1.60
69349;PMS5003;64554;43.452;4.934;2023-07-02T11:33:51;4.40;4.40;2.40
69349;PMS5003;64554;43.452;4.934;2023-07-02T11:36:21;5.00;5.00;3.00
69349;PMS5003;64554;43.452;4.934;2023-07-02T11:38:50;4.80;4.80;3.40
69349;PMS5003;64554;43.452;4.934;2023-07-02T11:41:17;4.00;3.00;2.00
69349;PMS5003;64554;43.452;4.934;2023-07-02T11:43:47;4.00;4.00;2.25
69349;PMS5003;64554;43.452;4.934;2023-07-02T11:46:14;3.25;3.25;1.25
69349;PMS5003;64554;43.452;4.934;2023-07-02T11:48:40;5.40;5.40;2.80
69349;PMS5003;64554;43.452;4.934;2023-07-02T11:51:07;2.75;2.75;1.75
69349;PMS5003;64554;43.452;4.934;2023-07-02T11:53:34;5.80;5.80;2.80
69349;PMS5003;64554;43.452;4.934;2023-07-02T11:56:00;5.00;4.00;3.00
69349;PMS5003;64554;43.452;4.934;2023-07-02T11:58:27;5.20;5.20;2.60
69349;PMS5003;64554;43.452;4.934;2023-07-02T12:00:53;6.00;4.80;2.80
69349;PMS5003;64554;43.452;4.934;2023-07-02T12:03:20;3.00;3.00;2.00
69349;PMS5003;64554;43.452;4.934;2023-07-02T12:05:46;3.50;3.50;2.00
69349;PMS5003;64554;43.452;4.934;2023-07-02T12:08:14;3.00;3.00;2.00
69349;PMS5003;64554;43.452;4.934;2023-07-02T12:10:40;3.00;2.50;1.50
69349;PMS5003;64554;43.452;4.934;2023-07-02T12:13:07;3.00;3.00;1.75
69349;PMS5003;64554;43.452;4.934;2023-07-02T12:15:33;2.20;2.20;2.00
69349;PMS5003;64554;43.452;4.934;2023-07-02T12:18:00;2.50;2.50;1.50
69349;PMS5003;64554;43.452;4.934;2023-07-02T12:20:27;2.60;2.60;2.00
69349;PMS5003;64554;43.452;4.934;2023-07-02T12:22:53;5.00;5.00;2.00
69349;PMS5003;64554;43.452;4.934;2023-07-02T12:25:20;2.40;2.40;0.40
69349;PMS5003;64554;43.452;4.934;2023-07-02T12:27:46;2.60;2.60;1.60
69349;PMS5003;64554;43.452;4.934;2023-07-02T12:30:13;1.50;1.50;0.50
69349;PMS5003;64554;43.452;4.934;2023-07-02T12:32:43;2.20;2.20;1.20
69349;PMS5003;64554;43.452;4.934;2023-07-02T12:35:11;2.50;2.50;0.50
69349;PMS5003;64554;43.452;4.934;2023-07-02T12:37:47;4.00;4.00;2.50
69349;PMS5003;64554;43.452;4.934;2023-07-02T12:40:14;5.25;5.25;2.50
69349;PMS5003;64554;43.452;4.934;2023-07-02T12:42:41;4.20;4.20;3.00
69349;PMS5003;64554;43.452;4.934;2023-07-02T12:45:08;6.00;6.00;3.00
69349;PMS5003;64554;43.452;4.934;2023-07-02T12:47:35;3.50;3.50;2.00
69349;PMS5003;64554;43.452;4.934;2023-07-02T12:50:02;3.00;3.00;2.00
69349;PMS5003;64554;43.452;4.934;2023-07-02T12:52:29;4.00;4.00;3.00
69349;PMS5003;64554;43.452;4.934;2023-07-02T12:54:55;3.00;2.60;1.20
69349;PMS5003;64554;43.452;4.934;2023-07-02T12:57:22;2.75;2.75;1.75
69349;PMS5003;64554;43.452;4.934;2023-07-02T12:59:49;7.00;4.00;2.00
69349;PMS5003;64554;43.452;4.934;2023-07-02T13:02:15;4.00;4.00;2.00
69349;PMS5003;64554;43.452;4.934;2023-07-02T13:04:42;4.50;4.50;2.50
69349;PMS5003;64554;43.452;4.934;2023-07-02T13:07:09;3.00;3.00;1.00
69349;PMS5003;64554;43.452;4.934;2023-07-02T13:09:35;2.00;2.00;1.00
69349;PMS5003;64554;43.452;4.934;2023-07-02T13:12:02;4.00;4.00;2.00
69349;PMS5003;64554;43.452;4.934;2023-07-02T13:14:29;3.50;3.50;2.00
69349;PMS5003;64554;43.452;4.934;2023-07-02T13:16:55;2.00;2.00;1.00
69349;PMS5003;64554;43.452;4.934;2023-07-02T13:19:22;3.00;3.00;2.00
69349;PMS5003;64554;43.452;4.934;2023-07-02T13:21:49;2.60;2.60;0.60
69349;PMS5003;64554;43.452;4.934;2023-07-02T13:24:16;2.75;2.75;0.75
69349;PMS5003;64554;43.452;4.934;2023-07-02T13:26:42;3.75;2.75;0.75
69349;PMS5003;64554;43.452;4.934;2023-07-02T13:29:11;1.80;1.80;0.80
69349;PMS5003;64554;43.452;4.934;2023-07-02T13:31:37;2.20;2.20;1.20
69349;PMS5003;64554;43.452;4.934;2023-07-02T13:34:04;2.00;2.00;0.00
69349;PMS5003;64554;43.452;4.934;2023-07-02T13:36:31;1.00;1.00;0.00
69349;PMS5003;64554;43.452;4.934;2023-07-02T13:38:57;2.00;2.00;1.00
69349;PMS5003;64554;43.452;4.934;2023-07-02T13:41:24;2.00;2.00;1.00
69349;PMS5003;64554;43.452;4.934;2023-07-02T13:43:50;2.67;2.67;1.67
69349;PMS5003;64554;43.452;4.934;2023-07-02T13:46:17;3.40;3.40;1.40
69349;PMS5003;64554;43.452;4.934;2023-07-02T13:48:46;3.00;3.00;2.00
69349;PMS5003;64554;43.452;4.934;2023-07-02T13:51:12;2.00;2.00;1.00
69349;PMS5003;64554;43.452;4.934;2023-07-02T13:53:39;4.50;4.50;3.00
69349;PMS5003;64554;43.452;4.934;2023-07-02T13:56:05;3.00;3.00;0.00
69349;PMS5003;64554;43.452;4.934;2023-07-02T14:01:12;3.00;3.00;1.00
69349;PMS5003;64554;43.452;4.934;2023-07-02T14:03:39;2.00;2.00;1.00
69349;PMS5003;64554;43.452;4.934;2023-07-02T14:06:06;1.60;1.60;0.00
69349;PMS5003;64554;43.452;4.934;2023-07-02T14:08:32;3.00;2.00;1.00
69349;PMS5003;64554;43.452;4.934;2023-07-02T14:10:59;3.40;3.40;1.00